createdAt,value
2022-09-24T00:03:54.231Z,21.9
2022-09-24T00:09:15.869Z,22
2022-09-24T00:14:53.209Z,22
2022-09-24T00:20:29.274Z,21.9
2022-09-24T00:26:06.719Z,21.9
2022-09-24T00:31:44.336Z,21.9
2022-09-24T00:37:22.256Z,21.9
2022-09-24T00:42:44.301Z,21.9
2022-09-24T00:48:05.365Z,21.9
2022-09-24T00:53:12.144Z,21.9
2022-09-24T00:58:33.783Z,21.9
2022-09-24T01:03:56.679Z,21.9
2022-09-24T01:09:18.746Z,21.9
2022-09-24T01:14:25.140Z,21.9
2022-09-24T01:19:47.411Z,21.9
2022-09-24T01:25:11.519Z,21.9
2022-09-24T01:30:32.738Z,21.9
2022-09-24T01:35:56.941Z,21.9
2022-09-24T01:41:19.141Z,21.9
2022-09-24T01:46:25.212Z,21.9
2022-09-24T01:51:49.056Z,21.9
2022-09-24T01:57:11.596Z,21.9
2022-09-24T02:02:18.459Z,21.9
2022-09-24T02:07:40.355Z,21.9
2022-09-24T02:12:47.257Z,21.9
2022-09-24T02:18:24.017Z,21.9
2022-09-24T02:23:30.737Z,21.9
2022-09-24T02:29:08.856Z,21.9
2022-09-24T02:34:30.919Z,21.9
2022-09-24T02:40:08.177Z,22
2022-09-24T02:45:30.713Z,21.9
2022-09-24T02:51:08.261Z,21.9
2022-09-24T02:56:29.607Z,21.9
2022-09-24T03:02:08.090Z,21.8
2022-09-24T03:07:45.296Z,21.8
2022-09-24T03:13:12.419Z,21.8
2022-09-24T03:18:34.469Z,21.8
2022-09-24T03:23:55.942Z,21.7
2022-09-24T03:29:16.787Z,21.7
2022-09-24T03:34:40.016Z,21.7
2022-09-24T03:40:01.405Z,21.7
2022-09-24T03:45:22.623Z,21.7
2022-09-24T03:50:44.636Z,21.6
2022-09-24T03:56:06.019Z,21.6
2022-09-24T04:01:30.724Z,21.6
2022-09-24T04:06:42.599Z,21.6
2022-09-24T04:12:03.767Z,21.6
2022-09-24T04:17:40.146Z,21.6
2022-09-24T04:23:18.083Z,21.6
2022-09-24T04:28:39.362Z,21.5
2022-09-24T04:34:16.548Z,21.5
2022-09-24T04:39:55.235Z,21.4
2022-09-24T04:45:32.697Z,21.5
2022-09-24T04:51:01.249Z,21.4
2022-09-24T04:56:39.489Z,21.4
2022-09-24T05:02:22.680Z,21.4
2022-09-24T05:08:01.492Z,21.4
2022-09-24T05:13:44.135Z,21.4
2022-09-24T05:19:07.281Z,21.4
2022-09-24T05:24:13.791Z,21.4
2022-09-24T05:29:51.758Z,21.4
2022-09-24T05:35:29.683Z,21.4
2022-09-24T05:40:57.517Z,21.3
2022-09-24T05:46:20.766Z,21.3
2022-09-24T05:51:42.927Z,21.3
2022-09-24T05:57:10.396Z,21.3
2022-09-24T06:02:33.833Z,21.3
2022-09-24T06:07:44.889Z,23
2022-09-24T06:12:52.266Z,25
2022-09-24T06:18:15.397Z,24.3
2022-09-24T06:23:37.726Z,23.9
2022-09-24T06:28:44.562Z,28.1
2022-09-24T06:34:11.702Z,27.6
2022-09-24T06:39:34.485Z,28.2
2022-09-24T06:44:41.463Z,28.8
2022-09-24T06:50:07.318Z,29.6
2022-09-24T06:55:46.824Z,30.3
2022-09-24T07:01:09.601Z,31.1
2022-09-24T07:06:33.594Z,31.8
2022-09-24T07:12:10.441Z,32.5
2022-09-24T07:17:50.590Z,33.3
2022-09-24T07:23:29.020Z,34
2022-09-24T07:29:06.563Z,34.8
2022-09-24T07:34:44.253Z,35.6
2022-09-24T07:40:06.978Z,36.3
2022-09-24T07:45:45.003Z,37
2022-09-24T07:51:11.638Z,37.8
2022-09-24T07:56:34.441Z,37.4
2022-09-24T08:01:56.872Z,38.1
2022-09-24T08:07:37.017Z,39
2022-09-24T08:12:44.293Z,39.8
2022-09-24T08:18:22.496Z,40.5
2022-09-24T08:24:00.211Z,40.5
2022-09-24T08:29:37.862Z,41.9
2022-09-24T08:35:14.920Z,42.6
2022-09-24T08:40:57.021Z,43.2
2022-09-24T08:46:35.540Z,43.8
2022-09-24T08:52:13.462Z,44.3
2022-09-24T08:57:35.930Z,44.9
2022-09-24T09:03:16.522Z,45.4
2022-09-24T09:09:39.450Z,45.9
2022-09-24T09:15:20.821Z,46.6
2022-09-24T09:20:43.597Z,47.1
2022-09-24T09:26:25.884Z,47.6
2022-09-24T09:31:37.313Z,48.1
2022-09-24T09:37:03.626Z,48.6
2022-09-24T09:42:31.477Z,49.1
2022-09-24T09:47:57.859Z,49.6
2022-09-24T09:53:20.443Z,50
2022-09-24T09:58:41.542Z,50.5
2022-09-24T10:04:05.449Z,50.9
2022-09-24T10:09:49.486Z,51.4
2022-09-24T10:15:26.708Z,51.8
2022-09-24T10:21:07.170Z,52.3
2022-09-24T10:26:50.205Z,52.7
2022-09-24T10:31:56.768Z,53.1
2022-09-24T10:37:06.130Z,53.4
2022-09-24T10:42:00.582Z,53.8
2022-09-24T10:47:23.239Z,54
2022-09-24T10:52:50.991Z,54.3
2022-09-24T10:57:27.409Z,54.6
2022-09-24T11:03:06.044Z,54.9
2022-09-24T11:08:45.106Z,55.2
2022-09-24T11:14:25.299Z,55.5
2022-09-24T11:19:47.637Z,55.8
2022-09-24T11:25:09.836Z,56
2022-09-24T11:30:48.147Z,56.3
2022-09-24T11:36:14.785Z,56.5
2022-09-24T11:41:52.484Z,56.6
2022-09-24T11:47:31.277Z,56.5
2022-09-24T11:53:11.830Z,56.9
2022-09-24T11:58:36.501Z,57.1
2022-09-24T12:03:59.813Z,57.1
2022-09-24T12:09:36.717Z,57.3
2022-09-24T12:14:58.383Z,57.4
2022-09-24T12:20:05.396Z,57.8
2022-09-24T12:25:13.084Z,57.3
2022-09-24T12:30:51.119Z,56.9
2022-09-24T12:36:18.337Z,57.1
2022-09-24T12:41:46.303Z,57.4
2022-09-24T12:47:29.621Z,57.5
2022-09-24T12:52:36.111Z,57.5
2022-09-24T12:58:15.336Z,57.6
2022-09-24T13:03:59.447Z,57.4
2022-09-24T13:09:25.567Z,57.4
2022-09-24T13:15:03.902Z,57.4
2022-09-24T13:20:50.065Z,57.2
2022-09-24T13:26:27.902Z,57.1
2022-09-24T13:32:11.729Z,56.9
2022-09-24T13:37:51.492Z,56.8
2022-09-24T13:43:29.644Z,56.6
2022-09-24T13:49:07.782Z,56.2
2022-09-24T13:54:45.350Z,55.6
2022-09-24T14:00:23.164Z,55.1
2022-09-24T14:06:01.639Z,54.4
2022-09-24T14:11:08.417Z,47.8
2022-09-24T14:16:15.925Z,45.1
2022-09-24T14:21:38.824Z,44.7
2022-09-24T14:27:16.623Z,44.6
2022-09-24T14:32:56.324Z,44.4
2022-09-24T14:38:21.772Z,44.1
2022-09-24T14:43:59.883Z,43.8
2022-09-24T14:49:38.532Z,43.4
2022-09-24T14:55:16.456Z,40.9
2022-09-24T15:00:41.276Z,38.7
2022-09-24T15:06:24.391Z,36.8
2022-09-24T15:12:01.943Z,35.6
2022-09-24T15:17:40.181Z,34.6
2022-09-24T15:23:18.446Z,33.9
2022-09-24T15:28:58.987Z,33.4
2022-09-24T15:34:37.159Z,32.9
2022-09-24T15:39:59.804Z,32.6
2022-09-24T15:45:23.826Z,32.3
2022-09-24T15:50:46.485Z,32.1
2022-09-24T15:56:16.336Z,31.8
2022-09-24T16:01:44.041Z,31.6
2022-09-24T16:07:22.812Z,31.5
2022-09-24T16:12:48.906Z,31.4
2022-09-24T16:18:30.185Z,31.3
2022-09-24T16:23:42.877Z,31.1
2022-09-24T16:29:21.269Z,31
2022-09-24T16:34:59.343Z,30.8
2022-09-24T16:40:36.751Z,30.7
2022-09-24T16:45:59.823Z,30.5
2022-09-24T16:51:26.757Z,30.3
2022-09-24T16:56:23.232Z,30.2
2022-09-24T17:01:46.063Z,30
2022-09-24T17:07:29.239Z,29.9
2022-09-24T17:13:13.767Z,29.8
2022-09-24T17:18:39.786Z,29.7
2022-09-24T17:24:21.363Z,29.6
2022-09-24T17:29:48.123Z,29.6
2022-09-24T17:35:54.771Z,29.4
2022-09-24T17:41:33.407Z,29
2022-09-24T17:52:07.932Z,27
2022-09-24T17:57:46.359Z,26.6
2022-09-24T18:03:09.371Z,26.2
2022-09-24T18:08:47.333Z,26
2022-09-24T18:14:14.774Z,25.9
2022-09-24T18:19:37.905Z,25.6
2022-09-24T18:25:01.034Z,25.5
2022-09-24T18:30:22.607Z,25.4
2022-09-24T18:36:00.670Z,25.4
2022-09-24T18:41:23.559Z,25.3
2022-09-24T18:47:02.328Z,25.3
2022-09-24T18:52:24.725Z,25.3
2022-09-24T18:57:47.080Z,25.2
2022-09-24T19:03:11.994Z,25.1
2022-09-24T19:08:49.867Z,25.1
2022-09-24T19:14:32.412Z,25.1
2022-09-24T19:19:43.138Z,25.1
2022-09-24T19:25:06.090Z,25.1
2022-09-24T19:30:28.912Z,25.1
2022-09-24T19:35:36.492Z,25.1
2022-09-24T19:40:44.499Z,25.1
2022-09-24T19:45:51.880Z,25.1
2022-09-24T19:51:03.196Z,25.1
2022-09-24T19:56:14.147Z,25.1
2022-09-24T20:01:36.828Z,25.1
2022-09-24T20:07:03.676Z,25.1
2022-09-24T20:11:57.089Z,25.1
2022-09-24T20:17:04.046Z,25.1
2022-09-24T20:22:29.318Z,25.1
2022-09-24T20:27:20.562Z,25.1
2022-09-24T20:32:13.981Z,25.1
2022-09-24T20:37:39.520Z,25.1
2022-09-24T20:43:00.642Z,25.1
2022-09-24T20:48:29.844Z,25.1
2022-09-24T20:53:38.141Z,25.1
2022-09-24T20:59:00.515Z,25.1
2022-09-24T21:04:50.570Z,25.1
2022-09-24T21:10:28.502Z,25.1
2022-09-24T21:16:08.317Z,25.1
2022-09-24T21:22:19.854Z,25.1
2022-09-24T21:28:23.113Z,25.2
2022-09-24T21:33:45.930Z,25.2
2022-09-24T21:39:23.883Z,25.1
2022-09-24T21:45:01.937Z,25.1
2022-09-24T21:50:07.903Z,25.1
2022-09-24T21:55:14.190Z,25.1
2022-09-24T22:00:36.369Z,25.1
2022-09-24T22:06:14.209Z,25.1
2022-09-24T22:11:35.703Z,25.2
2022-09-24T22:17:13.377Z,25.1
2022-09-24T22:22:35.877Z,25.1
2022-09-24T22:27:41.736Z,25.2
2022-09-24T22:33:12.246Z,25.1
2022-09-24T22:38:36.010Z,25.1
2022-09-24T22:44:16.284Z,25.1
2022-09-24T22:49:40.846Z,25.2
2022-09-24T22:55:20.349Z,25.1
2022-09-24T23:00:59.346Z,25.1
2022-09-24T23:06:44.441Z,25.1
2022-09-24T23:12:06.832Z,25.1
2022-09-24T23:17:44.936Z,25.1
2022-09-24T23:23:07.546Z,25.1
2022-09-24T23:28:46.052Z,25.1
2022-09-24T23:34:23.419Z,25.1
2022-09-24T23:40:01.362Z,25.1
2022-09-24T23:45:22.581Z,25.1
2022-09-24T23:50:29.428Z,25.1
2022-09-24T23:56:07.355Z,25.1
